createdAt,value
2023-03-25T00:02:12.039Z,99975.32
2023-03-25T00:05:18.015Z,99981.08
2023-03-25T00:08:24.310Z,99981.59
2023-03-25T00:11:31.221Z,99982.30
2023-03-25T00:14:39.910Z,99983.83
2023-03-25T00:17:46.635Z,99976.15
2023-03-25T00:20:52.767Z,99972.75
2023-03-25T00:23:59.907Z,99970.23
2023-03-25T00:27:06.796Z,99971.24
2023-03-25T00:30:13.784Z,99967.73
2023-03-25T00:33:21.187Z,99961.95
2023-03-25T00:36:27.862Z,99962.72
2023-03-25T00:39:34.373Z,99965.22
2023-03-25T00:42:41.563Z,99966.20
2023-03-25T00:45:48.453Z,99959.20
2023-03-25T00:48:54.616Z,99950.20
2023-03-25T00:51:59.339Z,99953.09
2023-03-25T00:55:05.704Z,99954.96
2023-03-25T00:58:12.179Z,99964.84
2023-03-25T01:01:29.311Z,99968.86
2023-03-25T01:04:36.734Z,99966.92
2023-03-25T01:07:43.563Z,99966.34
2023-03-25T01:10:52.994Z,99965.63
2023-03-25T01:13:58.463Z,99958.64
2023-03-25T01:21:14.213Z,99959.28
2023-03-25T01:24:20.516Z,99951.59
2023-03-25T01:27:25.539Z,99950.58
2023-03-25T01:30:32.136Z,99949.73
2023-03-25T01:33:39.503Z,99944.47
2023-03-25T01:36:46.424Z,99944.39
2023-03-25T01:39:54.525Z,99946.34
2023-03-25T01:42:59.972Z,99948.77
2023-03-25T01:46:06.623Z,99954.87
2023-03-25T01:49:12.342Z,99939.25
2023-03-25T01:52:23.524Z,99940.66
2023-03-25T01:55:31.272Z,99941.67
2023-03-25T01:58:38.151Z,99946.42
2023-03-25T02:01:43.292Z,99941.51
2023-03-25T02:05:15.736Z,99944.77
2023-03-25T02:08:22.848Z,99945.42
2023-03-25T02:11:29.122Z,99943.55
2023-03-25T02:14:38.397Z,99946.31
2023-03-25T02:18:11.854Z,99943.98
2023-03-25T02:21:30.717Z,99947.61
2023-03-25T02:25:17.796Z,99946.25
2023-03-25T02:29:04.852Z,99940.83
2023-03-25T02:32:29.070Z,99936.97
2023-03-25T02:35:59.835Z,99929.72
2023-03-25T02:39:10.461Z,99928.36
2023-03-25T02:42:21.911Z,99929.26
2023-03-25T02:45:49.096Z,99927.23
2023-03-25T02:49:26.307Z,99923.41
2023-03-25T02:52:45.472Z,99922.21
2023-03-25T02:55:44.424Z,99919.80
2023-03-25T02:58:51.908Z,99927.17
2023-03-25T03:01:57.574Z,99927.31
2023-03-25T03:07:46.180Z,99922.55
2023-03-25T03:11:27.700Z,99935.27
2023-03-25T03:15:18.973Z,99935.91
2023-03-25T03:18:58.391Z,99941.55
2023-03-25T03:22:39.356Z,99950.77
2023-03-25T03:26:02.038Z,99942.14
2023-03-25T03:29:16.683Z,99941.41
2023-03-25T03:32:50.062Z,99938.56
2023-03-25T03:36:15.154Z,99939.07
2023-03-25T03:39:26.900Z,99940.05
2023-03-25T03:43:10.943Z,99939.34
2023-03-25T03:46:17.689Z,99941.62
2023-03-25T03:49:30.797Z,99943.66
2023-03-25T03:52:44.114Z,99941.83
2023-03-25T03:55:58.317Z,99939.17
2023-03-25T03:59:07.317Z,99935.20
2023-03-25T04:02:16.047Z,99944.23
2023-03-25T04:05:26.557Z,99934.86
2023-03-25T04:08:48.009Z,99938.73
2023-03-25T04:11:58.564Z,99931.27
2023-03-25T04:15:05.768Z,99937.20
2023-03-25T04:18:13.483Z,99939.87
2023-03-25T04:21:22.332Z,99944.66
2023-03-25T04:24:29.166Z,99939.91
2023-03-25T04:27:39.017Z,99935.54
2023-03-25T04:30:45.181Z,99929.95
2023-03-25T04:33:52.741Z,99933.34
2023-03-25T04:36:58.825Z,99937.96
2023-03-25T04:40:06.587Z,99938.94
2023-03-25T04:43:12.586Z,99939.61
2023-03-25T04:46:18.649Z,99936.94
2023-03-25T04:49:29.850Z,99934.76
2023-03-25T04:52:36.669Z,99935.28
2023-03-25T04:55:43.520Z,99930.70
2023-03-25T04:58:49.004Z,99928.17
2023-03-25T05:01:53.989Z,99934.52
2023-03-25T05:05:00.825Z,99936.53
2023-03-25T05:08:08.403Z,99928.43
2023-03-25T05:11:14.231Z,99927.60
2023-03-25T05:14:28.310Z,99925.53
2023-03-25T05:17:34.148Z,99941.95
2023-03-25T05:20:42.445Z,99938.39
2023-03-25T05:23:50.182Z,99943.11
2023-03-25T05:26:56.921Z,99941.44
2023-03-25T05:30:04.659Z,99945.05
2023-03-25T05:33:10.335Z,99942.66
2023-03-25T05:36:15.536Z,99948.95
2023-03-25T05:39:21.149Z,99946.80
2023-03-25T05:42:29.144Z,99935.05
2023-03-25T05:45:35.683Z,99938.45
2023-03-25T05:48:42.178Z,99937.78
2023-03-25T05:51:49.069Z,99941.36
2023-03-25T05:54:56.459Z,99937.45
2023-03-25T05:58:04.054Z,99943.19
2023-03-25T06:01:25.513Z,99936.19
2023-03-25T06:04:20.316Z,99935.39
2023-03-25T06:07:28.905Z,99947.28
2023-03-25T06:10:34.824Z,99939.80
2023-03-25T06:13:43.729Z,99935.33
2023-03-25T06:16:50.259Z,99940.59
2023-03-25T06:19:56.050Z,99940.72
2023-03-25T06:23:02.830Z,99931.86
2023-03-25T06:26:08.864Z,99932.66
2023-03-25T06:29:16.412Z,99929.23
2023-03-25T06:32:23.442Z,99925.14
2023-03-25T06:35:27.748Z,99927.02
2023-03-25T06:38:33.359Z,99924.44
2023-03-25T06:41:43.229Z,99927.80
2023-03-25T06:44:50.961Z,99924.18
2023-03-25T06:48:09.779Z,99926.90
2023-03-25T06:51:14.710Z,99920.32
2023-03-25T06:54:22.189Z,99927.94
2023-03-25T06:57:27.321Z,99925.80
2023-03-25T07:00:35.789Z,99922.03
2023-03-25T07:03:43.533Z,99928.36
2023-03-25T07:06:49.420Z,99930.86
2023-03-25T07:09:56.101Z,99934.08
2023-03-25T07:13:01.754Z,99939.19
2023-03-25T07:16:14.632Z,99941.91
2023-03-25T07:19:20.567Z,99938.77
2023-03-25T07:22:25.464Z,99939.07
2023-03-25T07:25:31.217Z,99944.27
2023-03-25T07:28:36.790Z,99936.02
2023-03-25T07:31:42.143Z,99942.48
2023-03-25T07:34:48.496Z,99935.03
2023-03-25T07:37:55.823Z,99933.37
2023-03-25T07:41:02.840Z,99939.78
2023-03-25T07:44:08.765Z,99932.20
2023-03-25T07:47:14.573Z,99935.64
2023-03-25T07:50:25.671Z,99930.86
2023-03-25T07:53:31.922Z,99926.77
2023-03-25T07:56:37.110Z,99931.69
2023-03-25T07:59:43.041Z,99932.00
2023-03-25T08:02:49.293Z,99930.66
2023-03-25T08:06:02.130Z,99926.47
2023-03-25T08:09:07.997Z,99933.77
2023-03-25T08:12:13.161Z,99923.16
2023-03-25T08:15:19.152Z,99921.62
2023-03-25T08:18:25.508Z,99920.72
2023-03-25T08:21:35.274Z,99924.80
2023-03-25T08:24:42.094Z,99920.83
2023-03-25T08:27:48.627Z,99923.48
2023-03-25T08:30:56.827Z,99914.05
2023-03-25T08:34:03.241Z,99915.28
2023-03-25T08:37:09.386Z,99913.56
2023-03-25T08:40:19.164Z,99903.55
2023-03-25T08:43:25.926Z,99905.57
2023-03-25T08:46:31.581Z,99899.62
2023-03-25T08:49:36.684Z,99906.23
2023-03-25T08:52:43.440Z,99900.16
2023-03-25T08:55:49.444Z,99900.58
2023-03-25T08:58:55.945Z,99907.95
2023-03-25T09:02:02.852Z,99906.78
2023-03-25T09:05:09.125Z,99904.22
2023-03-25T09:08:14.371Z,99898.25
2023-03-25T09:11:30.173Z,99901.63
2023-03-25T09:14:19.606Z,99898.80
2023-03-25T09:17:25.124Z,99898.24
2023-03-25T09:20:31.523Z,99905.45
2023-03-25T09:23:37.247Z,99898.09
2023-03-25T09:26:42.627Z,99904.69
2023-03-25T09:29:48.513Z,99900.73
2023-03-25T09:32:55.548Z,99895.13
2023-03-25T09:36:03.363Z,99893.91
2023-03-25T09:39:09.389Z,99897.50
2023-03-25T09:42:49.013Z,99896.45
2023-03-25T09:46:00.463Z,99885.45
2023-03-25T09:49:06.221Z,99883.64
2023-03-25T09:52:12.117Z,99879.13
2023-03-25T09:55:24.250Z,99884.11
2023-03-25T09:58:55.333Z,99879.26
2023-03-25T10:02:11.834Z,99874.38
2023-03-25T10:06:07.818Z,99875.97
2023-03-25T10:09:32.735Z,99877.64
2023-03-25T10:12:58.590Z,99873.30
2023-03-25T10:16:43.265Z,99874.52
2023-03-25T10:20:20.281Z,99875.22
2023-03-25T10:23:36.925Z,99871.05
2023-03-25T10:26:54.411Z,99871.56
2023-03-25T10:30:12.812Z,99865.81
2023-03-25T10:33:27.317Z,99855.70
2023-03-25T10:36:32.628Z,99857.22
2023-03-25T10:39:40.479Z,99845.69
2023-03-25T10:42:53.907Z,99839.28
2023-03-25T10:46:01.329Z,99835.59
2023-03-25T10:49:07.737Z,99837.55
2023-03-25T10:52:16.367Z,99825.58
2023-03-25T10:55:24.814Z,99811.72
2023-03-25T10:58:31.346Z,99816.64
2023-03-25T11:01:43.678Z,99811.22
2023-03-25T11:04:52.705Z,99815.78
2023-03-25T11:08:23.635Z,99811.64
2023-03-25T11:11:20.672Z,99804.77
2023-03-25T11:14:27.304Z,99794.89
2023-03-25T11:17:33.680Z,99790.98
2023-03-25T11:20:43.332Z,99792.05
2023-03-25T11:23:51.526Z,99784.98
2023-03-25T11:26:59.455Z,99781.97
2023-03-25T11:30:17.576Z,99773.25
2023-03-25T11:33:29.264Z,99767.13
2023-03-25T11:36:46.678Z,99764.77
2023-03-25T11:39:55.832Z,99762.23
2023-03-25T11:43:10.899Z,99758.56
2023-03-25T11:46:33.127Z,99759.51
2023-03-25T11:49:41.201Z,99755.71
2023-03-25T11:53:00.184Z,99751.39
2023-03-25T11:56:09.546Z,99750.84
2023-03-25T11:59:16.110Z,99740.90
2023-03-25T12:02:47.551Z,99735.21
2023-03-25T12:05:54.281Z,99726.00
2023-03-25T12:09:14.830Z,99712.66
2023-03-25T12:12:53.184Z,99717.63
2023-03-25T12:16:24.029Z,99721.96
2023-03-25T12:19:50.498Z,99721.03
2023-03-25T12:23:35.019Z,99721.47
2023-03-25T12:27:11.381Z,99716.38
2023-03-25T12:30:48.046Z,99703.59
2023-03-25T12:34:05.784Z,99706.33
2023-03-25T12:37:47.221Z,99700.84
2023-03-25T12:41:16.446Z,99692.80
2023-03-25T12:45:00.271Z,99691.53
2023-03-25T12:48:15.009Z,99688.68
2023-03-25T12:51:26.304Z,99686.34
2023-03-25T12:54:57.511Z,99688.46
2023-03-25T12:58:40.322Z,99684.77
2023-03-25T13:02:06.998Z,99680.33
2023-03-25T13:05:36.874Z,99674.17
2023-03-25T13:08:53.821Z,99679.37
2023-03-25T13:12:06.596Z,99673.66
2023-03-25T13:15:38.720Z,99674.05
2023-03-25T13:19:05.987Z,99667.51
2023-03-25T13:22:18.977Z,99662.29
2023-03-25T13:25:31.269Z,99654.38
2023-03-25T13:28:44.980Z,99650.11
2023-03-25T13:31:54.899Z,99647.70
2023-03-25T13:35:08.596Z,99642.50
2023-03-25T13:38:17.948Z,99630.05
2023-03-25T13:41:38.905Z,99628.52
2023-03-25T13:44:52.974Z,99621.72
2023-03-25T13:48:02.983Z,99623.28
2023-03-25T13:51:10.652Z,99615.02
2023-03-25T13:54:36.745Z,99610.47
2023-03-25T13:57:51.204Z,99614.47
2023-03-25T14:01:28.911Z,99609.15
2023-03-25T14:05:20.234Z,99612.44
2023-03-25T14:08:47.568Z,99608.73
2023-03-25T14:11:54.468Z,99604.98
2023-03-25T14:15:03.794Z,99597.58
2023-03-25T14:18:10.863Z,99595.82
2023-03-25T14:21:37.113Z,99596.69
2023-03-25T14:24:55.613Z,99595.78
2023-03-25T14:28:04.514Z,99591.33
2023-03-25T14:31:30.535Z,99593.77
2023-03-25T14:34:41.669Z,99588.09
2023-03-25T14:37:46.558Z,99583.88
2023-03-25T14:41:03.868Z,99583.88
2023-03-25T14:44:05.208Z,99579.11
2023-03-25T14:47:32.635Z,99579.43
2023-03-25T14:50:47.676Z,99571.73
2023-03-25T14:53:52.655Z,99581.73
2023-03-25T14:57:11.405Z,99569.67
2023-03-25T15:00:18.847Z,99565.78
2023-03-25T15:03:28.644Z,99574.33
2023-03-25T15:06:46.299Z,99568.52
2023-03-25T15:10:05.977Z,99566.27
2023-03-25T15:13:25.413Z,99562.03
2023-03-25T15:16:48.320Z,99568.76
2023-03-25T15:20:21.736Z,99556.99
2023-03-25T15:23:56.732Z,99549.91
2023-03-25T15:27:03.509Z,99555.00
2023-03-25T15:30:14.244Z,99559.54
2023-03-25T15:33:46.451Z,99558.08
2023-03-25T15:37:03.767Z,99551.75
2023-03-25T15:40:33.055Z,99555.73
2023-03-25T15:44:23.846Z,99552.89
2023-03-25T15:47:50.585Z,99549.45
2023-03-25T15:51:20.896Z,99544.39
2023-03-25T15:54:50.190Z,99542.15
2023-03-25T15:58:18.472Z,99553.90
2023-03-25T16:01:42.985Z,99548.65
2023-03-25T16:05:02.254Z,99554.69
2023-03-25T16:08:07.898Z,99548.80
2023-03-25T16:11:38.845Z,99543.48
2023-03-25T16:14:47.227Z,99545.08
2023-03-25T16:17:53.023Z,99537.97
2023-03-25T16:20:59.476Z,99548.60
2023-03-25T16:24:09.054Z,99545.45
2023-03-25T16:27:25.716Z,99546.05
2023-03-25T16:30:40.318Z,99546.41
2023-03-25T16:33:54.177Z,99550.73
2023-03-25T16:37:01.316Z,99558.26
2023-03-25T16:40:12.700Z,99552.37
2023-03-25T16:43:21.586Z,99556.70
2023-03-25T16:46:28.432Z,99556.03
2023-03-25T16:49:38.281Z,99562.81
2023-03-25T16:52:46.066Z,99558.08
2023-03-25T16:56:03.988Z,99563.58
2023-03-25T16:59:20.809Z,99561.28
2023-03-25T17:02:48.249Z,99558.41
2023-03-25T17:06:11.033Z,99561.89
2023-03-25T17:09:18.762Z,99557.95
2023-03-25T17:12:35.178Z,99561.39
2023-03-25T17:15:41.715Z,99565.48
2023-03-25T17:18:47.104Z,99565.52
2023-03-25T17:21:52.955Z,99566.58
2023-03-25T17:25:11.295Z,99567.97
2023-03-25T17:28:36.804Z,99565.73
2023-03-25T17:31:49.784Z,99575.66
2023-03-25T17:34:57.541Z,99571.70
2023-03-25T17:38:05.112Z,99569.40
2023-03-25T17:41:16.231Z,99566.67
2023-03-25T17:44:21.857Z,99571.53
2023-03-25T17:47:32.718Z,99569.48
2023-03-25T17:50:39.530Z,99565.27
2023-03-25T17:53:45.085Z,99558.77
2023-03-25T17:56:50.701Z,99558.19
2023-03-25T17:59:58.196Z,99558.16
2023-03-25T18:03:05.790Z,99553.02
2023-03-25T18:06:12.523Z,99555.84
2023-03-25T18:09:20.504Z,99558.27
2023-03-25T18:12:20.314Z,99558.94
2023-03-25T18:15:26.781Z,99563.02
2023-03-25T18:18:38.034Z,99563.05
2023-03-25T18:21:43.401Z,99557.12
2023-03-25T18:24:43.721Z,99562.06
2023-03-25T18:27:52.640Z,99559.36
2023-03-25T18:31:02.561Z,99559.36
2023-03-25T18:34:07.649Z,99555.47
2023-03-25T18:37:14.141Z,99553.25
2023-03-25T18:40:38.312Z,99559.67
2023-03-25T18:43:43.994Z,99563.41
2023-03-25T18:46:50.092Z,99566.23
2023-03-25T18:49:55.802Z,99568.77
2023-03-25T18:53:02.080Z,99561.91
2023-03-25T18:56:05.908Z,99558.78
2023-03-25T18:58:59.885Z,99560.63
2023-03-25T19:02:06.361Z,99567.30
2023-03-25T19:05:11.942Z,99565.45
2023-03-25T19:08:18.216Z,99571.84
2023-03-25T19:11:23.941Z,99570.14
2023-03-25T19:14:32.291Z,99574.67
2023-03-25T19:17:38.735Z,99574.65
2023-03-25T19:20:47.757Z,99569.97
2023-03-25T19:23:53.458Z,99571.66
2023-03-25T19:26:59.507Z,99566.37
2023-03-25T19:30:05.989Z,99562.45
2023-03-25T19:33:04.658Z,99564.86
2023-03-25T19:36:01.923Z,99556.23
2023-03-25T19:39:11.959Z,99556.69
2023-03-25T19:42:18.041Z,99552.91
2023-03-25T19:45:24.247Z,99549.49
2023-03-25T19:48:29.056Z,99548.27
2023-03-25T19:51:33.861Z,99546.63
2023-03-25T19:54:40.435Z,99537.30
2023-03-25T19:57:46.343Z,99540.89
2023-03-25T20:00:51.442Z,99539.06
2023-03-25T20:03:58.237Z,99538.05
2023-03-25T20:07:02.828Z,99528.16
2023-03-25T20:10:19.028Z,99528.16
2023-03-25T20:13:16.747Z,99521.72
2023-03-25T20:16:22.822Z,99517.80
2023-03-25T20:19:29.357Z,99522.43
2023-03-25T20:22:35.007Z,99511.34
2023-03-25T20:25:40.111Z,99515.08
2023-03-25T20:28:47.747Z,99511.46
2023-03-25T20:31:54.270Z,99511.95
2023-03-25T20:35:01.074Z,99511.13
2023-03-25T20:38:07.369Z,99511.44
2023-03-25T20:41:13.196Z,99513.53
2023-03-25T20:44:19.548Z,99514.26
2023-03-25T20:47:20.436Z,99515.95
2023-03-25T20:50:14.232Z,99509.14
2023-03-25T20:53:20.884Z,99508.64
2023-03-25T20:56:26.917Z,99498.66
2023-03-25T20:59:34.553Z,99501.56
2023-03-25T21:02:40.224Z,99498.49
2023-03-25T21:05:46.412Z,99497.64
2023-03-25T21:08:55.830Z,99494.29
2023-03-25T21:12:02.057Z,99489.83
2023-03-25T21:15:11.846Z,99495.65
2023-03-25T21:18:17.488Z,99493.06
2023-03-25T21:21:24.333Z,99487.27
2023-03-25T21:24:24.086Z,99482.16
2023-03-25T21:27:37.805Z,99479.67
2023-03-25T21:30:39.356Z,99478.64
2023-03-25T21:33:48.452Z,99478.34
2023-03-25T21:36:55.267Z,99472.89
2023-03-25T21:40:04.835Z,99463.55
2023-03-25T21:43:09.636Z,99465.70
2023-03-25T21:46:16.716Z,99460.00
2023-03-25T21:49:23.333Z,99465.51
2023-03-25T21:52:32.187Z,99465.72
2023-03-25T21:55:39.500Z,99448.40
2023-03-25T21:58:47.337Z,99447.16
2023-03-25T22:01:54.036Z,99437.77
2023-03-25T22:05:00.013Z,99440.31
2023-03-25T22:08:05.256Z,99446.45
2023-03-25T22:11:21.528Z,99440.16
2023-03-25T22:14:26.457Z,99436.57
2023-03-25T22:17:33.676Z,99426.72
2023-03-25T22:20:40.406Z,99425.34
2023-03-25T22:23:48.826Z,99423.63
2023-03-25T22:26:50.437Z,99417.20
2023-03-25T22:29:36.579Z,99407.88
2023-03-25T22:32:32.507Z,99410.41
2023-03-25T22:35:24.942Z,99410.09
2023-03-25T22:38:31.784Z,99416.70
2023-03-25T22:41:37.135Z,99414.00
2023-03-25T22:44:43.226Z,99410.95
2023-03-25T22:47:49.287Z,99404.80
2023-03-25T22:50:54.586Z,99404.98
2023-03-25T22:54:00.180Z,99402.59
2023-03-25T22:57:05.558Z,99407.00
2023-03-25T23:00:10.845Z,99403.09
2023-03-25T23:03:17.611Z,99406.84
2023-03-25T23:06:24.448Z,99403.75
2023-03-25T23:09:32.794Z,99407.70
2023-03-25T23:12:39.877Z,99406.36
2023-03-25T23:15:46.742Z,99405.71
2023-03-25T23:18:52.696Z,99399.89
2023-03-25T23:21:58.856Z,99401.27
2023-03-25T23:25:04.356Z,99392.84
2023-03-25T23:28:05.245Z,99391.13
2023-03-25T23:31:12.106Z,99389.77
2023-03-25T23:34:19.613Z,99388.08
2023-03-25T23:37:26.097Z,99379.71
2023-03-25T23:40:31.798Z,99376.13
2023-03-25T23:43:39.672Z,99375.09
2023-03-25T23:46:45.950Z,99375.48
2023-03-25T23:49:52.131Z,99362.75
2023-03-25T23:52:59.258Z,99355.95
2023-03-25T23:56:07.278Z,99350.72
2023-03-25T23:59:13.698Z,99344.74
